sensor_id;sensor_type;location;lat;lon;timestamp;pressure;altitude;pressure_sealevel;temperature;humidity
32875;BME280;40468;42.128;24.750;2023-05-21T00:00:13;99451.06;;;17.68;64.84
32875;BME280;40468;42.128;24.750;2023-05-21T00:01:44;99452.03;;;17.67;65.01
32875;BME280;40468;42.128;24.750;2023-05-21T00:03:19;99451.81;;;17.70;64.85
32875;BME280;40468;42.128;24.750;2023-05-21T00:04:51;99450.97;;;17.69;64.96
32875;BME280;40468;42.128;24.750;2023-05-21T00:06:23;99444.88;;;17.69;65.02
32875;BME280;40468;42.128;24.750;2023-05-21T00:07:54;99443.06;;;17.69;64.85
32875;BME280;40468;42.128;24.750;2023-05-21T00:09:26;99443.19;;;17.68;64.98
32875;BME280;40468;42.128;24.750;2023-05-21T00:10:58;99439.59;;;17.69;64.96
32875;BME280;40468;42.128;24.750;2023-05-21T00:12:30;99436.97;;;17.69;64.89
32875;BME280;40468;42.128;24.750;2023-05-21T00:14:02;99430.25;;;17.65;64.97
32875;BME280;40468;42.128;24.750;2023-05-21T00:15:34;99437.91;;;17.68;64.99
32875;BME280;40468;42.128;24.750;2023-05-21T00:17:06;99432.63;;;17.68;64.92
32875;BME280;40468;42.128;24.750;2023-05-21T00:18:39;99429.19;;;17.67;65.02
32875;BME280;40468;42.128;24.750;2023-05-21T00:20:11;99426.78;;;17.64;65.08
32875;BME280;40468;42.128;24.750;2023-05-21T00:21:43;99424.16;;;17.64;65.09
32875;BME280;40468;42.128;24.750;2023-05-21T00:23:15;99426.91;;;17.63;65.16
32875;BME280;40468;42.128;24.750;2023-05-21T00:24:48;99434.78;;;17.63;65.32
32875;BME280;40468;42.128;24.750;2023-05-21T00:26:20;99431.34;;;17.62;65.46
32875;BME280;40468;42.128;24.750;2023-05-21T00:27:53;99437.47;;;17.51;65.35
32875;BME280;40468;42.128;24.750;2023-05-21T00:29:25;99435.28;;;17.57;65.59
32875;BME280;40468;42.128;24.750;2023-05-21T00:30:59;99429.78;;;17.60;65.53
32875;BME280;40468;42.128;24.750;2023-05-21T00:32:31;99430.50;;;17.62;65.58
32875;BME280;40468;42.128;24.750;2023-05-21T00:34:04;99426.22;;;17.61;65.50
32875;BME280;40468;42.128;24.750;2023-05-21T00:35:35;99413.28;;;17.58;65.54
32875;BME280;40468;42.128;24.750;2023-05-21T00:37:07;99416.50;;;17.61;65.59
32875;BME280;40468;42.128;24.750;2023-05-21T00:38:40;99417.59;;;17.59;65.62
32875;BME280;40468;42.128;24.750;2023-05-21T00:40:13;99414.28;;;17.45;65.62
32875;BME280;40468;42.128;24.750;2023-05-21T00:41:45;99401.38;;;17.42;65.85
32875;BME280;40468;42.128;24.750;2023-05-21T00:43:17;99407.31;;;17.44;65.71
32875;BME280;40468;42.128;24.750;2023-05-21T00:44:48;99413.31;;;17.46;65.84
32875;BME280;40468;42.128;24.750;2023-05-21T00:46:21;99411.66;;;17.45;65.96
32875;BME280;40468;42.128;24.750;2023-05-21T00:47:53;99414.28;;;17.45;66.07
32875;BME280;40468;42.128;24.750;2023-05-21T00:49:26;99411.03;;;17.42;66.11
32875;BME280;40468;42.128;24.750;2023-05-21T00:50:57;99411.16;;;17.40;66.16
32875;BME280;40468;42.128;24.750;2023-05-21T00:52:29;99410.44;;;17.38;66.36
32875;BME280;40468;42.128;24.750;2023-05-21T00:54:02;99408.19;;;17.34;66.53
32875;BME280;40468;42.128;24.750;2023-05-21T00:55:34;99409.28;;;17.31;66.69
32875;BME280;40468;42.128;24.750;2023-05-21T00:57:06;99410.34;;;17.28;66.92
32875;BME280;40468;42.128;24.750;2023-05-21T00:58:38;99410.34;;;17.28;66.99
32875;BME280;40468;42.128;24.750;2023-05-21T01:00:12;99395.16;;;17.21;67.24
32875;BME280;40468;42.128;24.750;2023-05-21T01:01:45;99407.47;;;17.20;67.40
32875;BME280;40468;42.128;24.750;2023-05-21T01:03:23;99406.88;;;17.17;67.53
32875;BME280;40468;42.128;24.750;2023-05-21T01:04:56;99405.22;;;17.16;67.66
32875;BME280;40468;42.128;24.750;2023-05-21T01:06:29;99401.13;;;17.12;67.85
32875;BME280;40468;42.128;24.750;2023-05-21T01:08:04;99395.78;;;17.13;67.87
32875;BME280;40468;42.128;24.750;2023-05-21T01:09:37;99399.72;;;17.08;68.02
32875;BME280;40468;42.128;24.750;2023-05-21T01:11:09;99411.41;;;17.15;68.07
32875;BME280;40468;42.128;24.750;2023-05-21T01:12:41;99402.69;;;17.03;68.11
32875;BME280;40468;42.128;24.750;2023-05-21T01:14:15;99410.25;;;17.08;68.15
32875;BME280;40468;42.128;24.750;2023-05-21T01:15:46;99404.00;;;17.09;68.22
32875;BME280;40468;42.128;24.750;2023-05-21T01:17:19;99404.75;;;16.99;68.17
32875;BME280;40468;42.128;24.750;2023-05-21T01:18:53;99394.34;;;16.98;68.36
32875;BME280;40468;42.128;24.750;2023-05-21T01:20:28;99402.59;;;17.04;68.35
32875;BME280;40468;42.128;24.750;2023-05-21T01:22:04;99395.53;;;17.05;68.44
32875;BME280;40468;42.128;24.750;2023-05-21T01:23:37;99401.63;;;17.05;68.57
32875;BME280;40468;42.128;24.750;2023-05-21T01:25:09;99401.88;;;17.02;68.66
32875;BME280;40468;42.128;24.750;2023-05-21T01:26:41;99399.22;;;17.02;68.53
32875;BME280;40468;42.128;24.750;2023-05-21T01:28:13;99390.75;;;16.99;68.75
32875;BME280;40468;42.128;24.750;2023-05-21T01:29:45;99405.22;;;17.04;68.48
32875;BME280;40468;42.128;24.750;2023-05-21T01:31:22;99402.34;;;17.08;68.42
32875;BME280;40468;42.128;24.750;2023-05-21T01:33:01;99401.38;;;17.09;68.57
32875;BME280;40468;42.128;24.750;2023-05-21T01:34:38;99392.66;;;17.08;68.41
32875;BME280;40468;42.128;24.750;2023-05-21T01:36:14;99390.84;;;17.09;68.41
32875;BME280;40468;42.128;24.750;2023-05-21T01:37:54;99393.63;;;17.07;68.19
32875;BME280;40468;42.128;24.750;2023-05-21T01:39:32;99398.03;;;17.06;68.15
32875;BME280;40468;42.128;24.750;2023-05-21T01:41:09;99368.75;;;16.89;68.07
32875;BME280;40468;42.128;24.750;2023-05-21T01:42:43;99395.63;;;17.03;68.26
32875;BME280;40468;42.128;24.750;2023-05-21T01:44:14;99394.81;;;16.92;68.19
32875;BME280;40468;42.128;24.750;2023-05-21T01:45:52;99387.78;;;16.92;68.16
32875;BME280;40468;42.128;24.750;2023-05-21T01:47:26;99396.00;;;16.99;68.07
32875;BME280;40468;42.128;24.750;2023-05-21T01:49:00;99400.31;;;17.00;68.18
32875;BME280;40468;42.128;24.750;2023-05-21T01:50:33;99370.09;;;16.83;68.24
32875;BME280;40468;42.128;24.750;2023-05-21T01:52:06;99387.41;;;16.97;67.99
32875;BME280;40468;42.128;24.750;2023-05-21T01:53:39;99385.84;;;16.94;68.04
32875;BME280;40468;42.128;24.750;2023-05-21T01:55:13;99388.47;;;16.94;68.12
32875;BME280;40468;42.128;24.750;2023-05-21T01:56:44;99386.06;;;16.91;68.18
32875;BME280;40468;42.128;24.750;2023-05-21T01:58:17;99383.59;;;16.90;68.24
32875;BME280;40468;42.128;24.750;2023-05-21T01:59:50;99381.66;;;16.92;68.17
32875;BME280;40468;42.128;24.750;2023-05-21T02:01:24;99378.31;;;16.90;68.22
32875;BME280;40468;42.128;24.750;2023-05-21T02:02:56;99372.22;;;16.89;68.21
32875;BME280;40468;42.128;24.750;2023-05-21T02:04:29;99374.63;;;16.92;68.07
32875;BME280;40468;42.128;24.750;2023-05-21T02:06:01;99377.13;;;16.94;68.09
32875;BME280;40468;42.128;24.750;2023-05-21T02:07:33;99370.28;;;16.91;67.92
32875;BME280;40468;42.128;24.750;2023-05-21T02:09:04;99378.69;;;16.96;67.96
32875;BME280;40468;42.128;24.750;2023-05-21T02:10:38;99377.72;;;16.97;67.90
32875;BME280;40468;42.128;24.750;2023-05-21T02:12:09;99375.06;;;16.97;67.81
32875;BME280;40468;42.128;24.750;2023-05-21T02:13:41;99368.63;;;16.90;67.88
32875;BME280;40468;42.128;24.750;2023-05-21T02:15:12;99378.69;;;16.96;67.72
32875;BME280;40468;42.128;24.750;2023-05-21T02:16:47;99372.81;;;16.93;67.67
32875;BME280;40468;42.128;24.750;2023-05-21T02:18:17;99361.72;;;16.89;67.63
32875;BME280;40468;42.128;24.750;2023-05-21T02:19:50;99373.41;;;16.96;67.57
32875;BME280;40468;42.128;24.750;2023-05-21T02:21:22;99372.69;;;16.94;67.45
32875;BME280;40468;42.128;24.750;2023-05-21T02:22:54;99375.94;;;16.98;67.25
32875;BME280;40468;42.128;24.750;2023-05-21T02:24:26;99376.78;;;16.98;67.12
32875;BME280;40468;42.128;24.750;2023-05-21T02:26:00;99373.16;;;16.99;67.01
32875;BME280;40468;42.128;24.750;2023-05-21T02:27:32;99370.53;;;16.99;67.01
32875;BME280;40468;42.128;24.750;2023-05-21T02:29:04;99367.09;;;16.99;66.89
32875;BME280;40468;42.128;24.750;2023-05-21T02:30:36;99366.25;;;16.98;66.84
32875;BME280;40468;42.128;24.750;2023-05-21T02:32:07;99371.63;;;16.97;66.74
32875;BME280;40468;42.128;24.750;2023-05-21T02:33:39;99370.69;;;16.98;66.75
32875;BME280;40468;42.128;24.750;2023-05-21T02:35:12;99383.59;;;17.01;66.75
32875;BME280;40468;42.128;24.750;2023-05-21T02:36:43;99376.53;;;17.01;66.72
32875;BME280;40468;42.128;24.750;2023-05-21T02:38:17;99374.84;;;17.00;66.96
32875;BME280;40468;42.128;24.750;2023-05-21T02:39:52;99345.56;;;16.82;66.86
32875;BME280;40468;42.128;24.750;2023-05-21T02:41:25;99376.78;;;16.98;66.85
32875;BME280;40468;42.128;24.750;2023-05-21T02:42:57;99374.00;;;17.00;66.88
32875;BME280;40468;42.128;24.750;2023-05-21T02:44:28;99366.34;;;16.97;66.95
32875;BME280;40468;42.128;24.750;2023-05-21T02:46:00;99365.28;;;16.99;66.94
32875;BME280;40468;42.128;24.750;2023-05-21T02:47:31;99363.13;;;16.93;67.03
32875;BME280;40468;42.128;24.750;2023-05-21T02:49:02;99361.72;;;16.89;67.10
32875;BME280;40468;42.128;24.750;2023-05-21T02:50:34;99371.75;;;16.95;67.04
32875;BME280;40468;42.128;24.750;2023-05-21T02:52:05;99377.84;;;16.96;67.19
32875;BME280;40468;42.128;24.750;2023-05-21T02:53:38;99363.47;;;16.89;67.22
32875;BME280;40468;42.128;24.750;2023-05-21T02:55:10;99370.78;;;16.96;67.16
32875;BME280;40468;42.128;24.750;2023-05-21T02:56:42;99368.88;;;16.98;67.17
32875;BME280;40468;42.128;24.750;2023-05-21T02:58:14;99371.84;;;16.94;67.29
32875;BME280;40468;42.128;24.750;2023-05-21T02:59:46;99372.59;;;16.96;67.36
32875;BME280;40468;42.128;24.750;2023-05-21T03:01:17;99375.22;;;16.96;67.49
32875;BME280;40468;42.128;24.750;2023-05-21T03:02:49;99379.50;;;16.97;67.39
32875;BME280;40468;42.128;24.750;2023-05-21T03:04:21;99375.94;;;16.98;67.46
32875;BME280;40468;42.128;24.750;2023-05-21T03:05:53;99362.53;;;16.90;67.52
32875;BME280;40468;42.128;24.750;2023-05-21T03:07:25;99358.94;;;16.91;67.80
32875;BME280;40468;42.128;24.750;2023-05-21T03:08:57;99375.06;;;16.97;67.39
32875;BME280;40468;42.128;24.750;2023-05-21T03:10:28;99364.94;;;16.93;67.43
32875;BME280;40468;42.128;24.750;2023-05-21T03:12:02;99366.34;;;16.97;67.50
32875;BME280;40468;42.128;24.750;2023-05-21T03:13:34;99377.50;;;16.89;67.52
32875;BME280;40468;42.128;24.750;2023-05-21T03:15:06;99366.34;;;16.86;67.55
32875;BME280;40468;42.128;24.750;2023-05-21T03:16:39;99370.53;;;16.88;67.70
32875;BME280;40468;42.128;24.750;2023-05-21T03:18:11;99375.31;;;16.94;67.71
32875;BME280;40468;42.128;24.750;2023-05-21T03:19:43;99365.16;;;16.90;67.83
32875;BME280;40468;42.128;24.750;2023-05-21T03:21:15;99376.03;;;16.96;67.68
32875;BME280;40468;42.128;24.750;2023-05-21T03:22:47;99373.41;;;16.96;67.76
32875;BME280;40468;42.128;24.750;2023-05-21T03:24:19;99383.69;;;16.99;67.76
32875;BME280;40468;42.128;24.750;2023-05-21T03:25:51;99376.63;;;17.00;67.71
32875;BME280;40468;42.128;24.750;2023-05-21T03:27:24;99314.00;;;16.60;67.84
32875;BME280;40468;42.128;24.750;2023-05-21T03:28:56;99383.59;;;16.90;67.85
32875;BME280;40468;42.128;24.750;2023-05-21T03:30:28;99368.03;;;16.87;67.77
32875;BME280;40468;42.128;24.750;2023-05-21T03:31:59;99364.81;;;16.83;67.89
32875;BME280;40468;42.128;24.750;2023-05-21T03:33:32;99385.84;;;16.94;67.96
32875;BME280;40468;42.128;24.750;2023-05-21T03:35:04;99373.91;;;16.90;68.12
32875;BME280;40468;42.128;24.750;2023-05-21T03:36:36;99380.56;;;16.94;68.02
32875;BME280;40468;42.128;24.750;2023-05-21T03:38:08;99380.47;;;16.96;67.97
32875;BME280;40468;42.128;24.750;2023-05-21T03:39:39;99385.34;;;17.00;67.86
32875;BME280;40468;42.128;24.750;2023-05-21T03:41:12;99380.09;;;17.00;67.88
32875;BME280;40468;42.128;24.750;2023-05-21T03:42:45;99376.53;;;17.01;67.88
32875;BME280;40468;42.128;24.750;2023-05-21T03:44:17;99380.97;;;17.01;67.92
32875;BME280;40468;42.128;24.750;2023-05-21T03:45:49;99380.22;;;16.99;67.89
32875;BME280;40468;42.128;24.750;2023-05-21T03:47:22;99380.09;;;17.00;67.91
32875;BME280;40468;42.128;24.750;2023-05-21T03:48:54;99383.69;;;16.99;67.88
32875;BME280;40468;42.128;24.750;2023-05-21T03:50:27;99377.00;;;16.95;68.04
32875;BME280;40468;42.128;24.750;2023-05-21T03:51:59;99369.84;;;16.86;68.16
32875;BME280;40468;42.128;24.750;2023-05-21T03:53:32;99380.81;;;16.91;68.27
32875;BME280;40468;42.128;24.750;2023-05-21T03:55:04;99383.34;;;16.81;68.08
32875;BME280;40468;42.128;24.750;2023-05-21T03:56:36;99387.28;;;16.87;68.38
32875;BME280;40468;42.128;24.750;2023-05-21T03:58:10;99386.06;;;16.91;68.38
32875;BME280;40468;42.128;24.750;2023-05-21T03:59:40;99378.19;;;16.91;68.18
32875;BME280;40468;42.128;24.750;2023-05-21T04:01:12;99383.34;;;16.93;67.95
32875;BME280;40468;42.128;24.750;2023-05-21T04:02:44;99380.56;;;16.94;67.92
32875;BME280;40468;42.128;24.750;2023-05-21T04:04:16;99371.25;;;16.90;67.88
32875;BME280;40468;42.128;24.750;2023-05-21T04:05:47;99381.53;;;16.93;67.80
32875;BME280;40468;42.128;24.750;2023-05-21T04:07:19;99382.38;;;16.94;67.68
32875;BME280;40468;42.128;24.750;2023-05-21T04:08:51;99377.84;;;16.96;67.63
32875;BME280;40468;42.128;24.750;2023-05-21T04:10:22;99373.31;;;16.98;67.62
32875;BME280;40468;42.128;24.750;2023-05-21T04:11:54;99372.44;;;16.97;67.60
32875;BME280;40468;42.128;24.750;2023-05-21T04:13:27;99380.97;;;17.01;67.62
32875;BME280;40468;42.128;24.750;2023-05-21T04:14:59;99379.03;;;17.03;67.53
32875;BME280;40468;42.128;24.750;2023-05-21T04:16:32;99381.53;;;17.04;67.58
32875;BME280;40468;42.128;24.750;2023-05-21T04:18:04;99374.34;;;17.06;67.66
32875;BME280;40468;42.128;24.750;2023-05-21T04:19:37;99374.25;;;17.08;67.64
32875;BME280;40468;42.128;24.750;2023-05-21T04:21:10;99381.88;;;17.11;67.58
32875;BME280;40468;42.128;24.750;2023-05-21T04:22:41;99374.72;;;17.13;67.53
32875;BME280;40468;42.128;24.750;2023-05-21T04:24:13;99378.91;;;17.16;67.56
32875;BME280;40468;42.128;24.750;2023-05-21T04:25:44;99377.81;;;17.18;67.51
32875;BME280;40468;42.128;24.750;2023-05-21T04:27:20;99371.72;;;17.18;67.40
32875;BME280;40468;42.128;24.750;2023-05-21T04:28:54;99375.78;;;17.22;67.15
32875;BME280;40468;42.128;24.750;2023-05-21T04:30:25;99365.97;;;17.24;67.22
32875;BME280;40468;42.128;24.750;2023-05-21T04:31:57;99369.44;;;17.24;67.17
32875;BME280;40468;42.128;24.750;2023-05-21T04:33:28;99373.75;;;17.25;67.26
32875;BME280;40468;42.128;24.750;2023-05-21T04:35:00;99370.16;;;17.26;67.14
32875;BME280;40468;42.128;24.750;2023-05-21T04:36:32;99363.94;;;17.27;67.16
32875;BME280;40468;42.128;24.750;2023-05-21T04:38:03;99370.72;;;17.30;67.17
32875;BME280;40468;42.128;24.750;2023-05-21T04:39:36;99374.09;;;17.32;67.25
